SBHT

Details ICAO SBHT (ATM)
Name ALTAMIRA
Region Brazil
Timezone America/Santarem (UTC-3.0)
Plans Departing 15
Arriving 20
Stats Elevation 368 ft / 112 m (AMSL)
Location -3.253906° -52.253976°
Runways 1
Magnetic Variation 19.398° W
Sunrise 2018-05-20 09:28:10 UTC / 2018-05-20 06:28:10 Local
Sunset 2018-05-20 21:25:47 UTC / 2018-05-20 18:25:47 Local
Advertisement - Login to hide

Runways

ID Width Length Bearing (true) Bearing (mag) Surface Threshold Offset Overrun Length
07 125 ft / 38 m 6,575 ft / 2,004 m 51.82° 71.22° Asphalt 0 ft / 0 m 0 ft / 0 m
25 125 ft / 38 m 6,575 ft / 2,004 m 231.82° 251.22° Asphalt 0 ft / 0 m 0 ft / 0 m

Map

Weather


0- 5 10 15 20 25 30 35+ Temperature / ° C

Clouds and Precipitation
Forecast for 2018-05-20 18:00 UTC. Updated 3 hours ago

Ground ~20,000 ft ~40,000 ft Winds

METAR

SBHT 202000Z 07003KT 9000 VCSH FEW025 FEW027TCU 30/25 Q1008

TAF

Not found

Frequencies

Tower 125.85 MHz RDO
Warning: Do not use this data for real-world aviation or navigation. No guarantee of current accuracy is given.